createdAt,value
2022-10-28T00:00:50.926Z,5.05
2022-10-28T00:03:18.914Z,5.85
2022-10-28T00:05:48.137Z,5.68
2022-10-28T00:08:15.936Z,5.63
2022-10-28T00:10:43.700Z,5.63
2022-10-28T00:13:11.486Z,6.38
2022-10-28T00:15:39.317Z,5.93
2022-10-28T00:18:07.313Z,5.72
2022-10-28T00:20:35.148Z,5.60
2022-10-28T00:23:04.356Z,6.78
2022-10-28T00:25:32.107Z,6.40
2022-10-28T00:27:59.985Z,5.78
2022-10-28T00:30:27.879Z,5.53
2022-10-28T00:32:55.921Z,5.82
2022-10-28T00:35:24.468Z,5.72
2022-10-28T00:37:54.428Z,6.20
2022-10-28T00:40:23.822Z,5.55
2022-10-28T00:42:51.771Z,5.97
2022-10-28T00:45:19.933Z,5.80
2022-10-28T00:47:55.231Z,6.38
2022-10-28T00:50:42.170Z,6.45
2022-10-28T00:53:15.304Z,7.43
2022-10-28T00:55:46.395Z,6.32
2022-10-28T00:58:15.664Z,6.10
2022-10-28T01:00:43.638Z,6.80
2022-10-28T01:03:11.882Z,6.35
2022-10-28T01:05:42.897Z,7.22
2022-10-28T01:08:12.033Z,7.78
2022-10-28T01:10:57.955Z,6.40
2022-10-28T01:13:37.168Z,6.80
2022-10-28T01:16:16.132Z,6.22
2022-10-28T01:18:55.532Z,6.43
2022-10-28T01:21:40.017Z,6.47
2022-10-28T01:24:22.761Z,6.45
2022-10-28T01:27:32.396Z,7.55
2022-10-28T01:30:12.873Z,5.82
2022-10-28T01:32:53.377Z,6.20
2022-10-28T01:35:27.080Z,6.70
2022-10-28T01:38:11.002Z,6.75
2022-10-28T01:40:48.448Z,6.07
2022-10-28T01:43:24.719Z,6.40
2022-10-28T01:45:59.196Z,7.03
2022-10-28T01:48:33.745Z,6.95
2022-10-28T01:51:08.828Z,6.50
2022-10-28T01:53:41.795Z,8.07
2022-10-28T01:56:14.937Z,7.18
2022-10-28T01:58:44.061Z,6.50
2022-10-28T02:01:13.418Z,6.25
2022-10-28T02:03:42.683Z,6.88
2022-10-28T02:06:18.304Z,6.97
2022-10-28T02:08:58.333Z,7.00
2022-10-28T02:12:09.031Z,6.32
2022-10-28T02:14:54.118Z,6.40
2022-10-28T02:17:29.978Z,5.93
2022-10-28T02:20:08.465Z,6.05
2022-10-28T02:22:46.020Z,6.30
2022-10-28T02:25:18.040Z,6.40
2022-10-28T02:27:53.183Z,6.95
2022-10-28T02:30:24.385Z,8.73
2022-10-28T02:32:57.019Z,9.30
2022-10-28T02:35:32.545Z,9.23
2022-10-28T02:38:05.333Z,8.35
2022-10-28T02:40:36.059Z,7.63
2022-10-28T02:43:07.112Z,6.70
2022-10-28T02:45:38.962Z,7.00
2022-10-28T02:48:11.008Z,7.25
2022-10-28T02:50:47.875Z,6.85
2022-10-28T02:53:20.302Z,7.95
2022-10-28T02:55:53.613Z,8.90
2022-10-28T02:58:22.115Z,7.00
2022-10-28T03:00:50.644Z,6.70
2022-10-28T03:03:18.957Z,6.63
2022-10-28T03:05:48.171Z,7.35
2022-10-28T03:08:15.993Z,6.43
2022-10-28T03:10:43.824Z,6.80
2022-10-28T03:13:11.649Z,6.20
2022-10-28T03:15:39.445Z,6.50
2022-10-28T03:18:07.275Z,6.10
2022-10-28T03:20:35.135Z,7.03
2022-10-28T03:23:04.309Z,6.68
2022-10-28T03:25:32.471Z,6.35
2022-10-28T03:28:00.226Z,6.68
2022-10-28T03:30:28.009Z,6.68
2022-10-28T03:32:56.179Z,6.30
2022-10-28T03:35:24.320Z,6.55
2022-10-28T03:37:52.273Z,7.65
2022-10-28T03:40:21.448Z,7.15
2022-10-28T03:42:49.309Z,7.43
2022-10-28T03:45:17.110Z,7.38
2022-10-28T03:47:44.894Z,7.72
2022-10-28T03:50:12.780Z,7.53
2022-10-28T03:52:40.596Z,7.95
2022-10-28T03:55:09.185Z,7.13
2022-10-28T03:57:38.366Z,8.35
2022-10-28T04:00:07.827Z,7.78
2022-10-28T04:02:41.418Z,7.43
2022-10-28T04:05:09.580Z,6.82
2022-10-28T04:07:37.450Z,7.97
2022-10-28T04:10:05.626Z,6.97
2022-10-28T04:12:33.439Z,6.40
2022-10-28T04:15:02.637Z,6.32
2022-10-28T04:17:30.881Z,6.30
2022-10-28T04:19:58.692Z,6.32
2022-10-28T04:22:26.480Z,5.68
2022-10-28T04:24:55.085Z,6.10
2022-10-28T04:27:22.960Z,6.93
2022-10-28T04:29:50.839Z,5.88
2022-10-28T04:32:19.986Z,6.15
2022-10-28T04:34:47.850Z,6.03
2022-10-28T04:37:19.640Z,5.57
2022-10-28T04:39:48.478Z,5.78
2022-10-28T04:42:16.553Z,5.70
2022-10-28T04:44:44.268Z,5.70
2022-10-28T04:47:12.180Z,5.38
2022-10-28T04:49:41.471Z,5.65
2022-10-28T04:52:12.050Z,7.20
2022-10-28T04:54:42.700Z,5.80
2022-10-28T04:57:10.550Z,6.03
2022-10-28T04:59:38.397Z,7.32
2022-10-28T05:02:06.374Z,6.43
2022-10-28T05:04:34.290Z,5.80
2022-10-28T05:07:03.470Z,6.07
2022-10-28T05:09:31.286Z,7.53
2022-10-28T05:11:59.063Z,5.47
2022-10-28T05:14:26.877Z,5.35
2022-10-28T05:16:54.676Z,6.47
2022-10-28T05:19:22.577Z,6.28
2022-10-28T05:21:50.425Z,6.78
2022-10-28T05:24:19.556Z,6.28
2022-10-28T05:26:47.677Z,6.53
2022-10-28T05:29:15.472Z,6.30
2022-10-28T05:31:43.226Z,5.80
2022-10-28T05:34:11.020Z,5.15
2022-10-28T05:36:39.348Z,6.35
2022-10-28T05:39:07.506Z,6.45
2022-10-28T05:41:38.855Z,6.05
2022-10-28T05:44:07.236Z,5.55
2022-10-28T05:46:34.981Z,6.00
2022-10-28T05:49:02.835Z,5.43
2022-10-28T05:51:30.719Z,5.65
2022-10-28T05:53:58.516Z,6.10
2022-10-28T05:56:26.352Z,4.80
2022-10-28T05:58:57.176Z,5.72
2022-10-28T06:01:25.090Z,6.20
2022-10-28T06:03:52.927Z,6.65
2022-10-28T06:06:20.811Z,6.15
2022-10-28T06:08:48.589Z,6.68
2022-10-28T06:11:14.843Z,5.75
2022-10-28T06:13:42.796Z,6.50
2022-10-28T06:16:11.986Z,6.88
2022-10-28T06:18:39.753Z,6.13
2022-10-28T06:21:07.737Z,6.28
2022-10-28T06:23:35.466Z,5.68
2022-10-28T06:26:04.421Z,6.20
2022-10-28T06:28:32.571Z,5.93
2022-10-28T06:31:04.688Z,6.13
2022-10-28T06:33:34.632Z,6.10
2022-10-28T06:36:03.378Z,5.18
2022-10-28T06:38:31.189Z,5.80
2022-10-28T06:40:59.224Z,6.10
2022-10-28T06:43:27.038Z,5.72
2022-10-28T06:45:55.753Z,6.03
2022-10-28T06:48:25.822Z,5.88
2022-10-28T06:50:57.981Z,6.47
2022-10-28T06:53:26.120Z,5.68
2022-10-28T06:55:54.339Z,6.70
2022-10-28T06:58:22.317Z,8.18
2022-10-28T07:00:50.646Z,6.97
2022-10-28T07:03:19.728Z,6.20
2022-10-28T07:05:49.189Z,6.25
2022-10-28T07:08:18.570Z,6.18
2022-10-28T07:10:53.844Z,6.37
2022-10-28T07:13:21.647Z,5.78
2022-10-28T07:15:53.491Z,6.13
2022-10-28T07:18:21.848Z,5.43
2022-10-28T07:20:49.928Z,6.53
2022-10-28T07:23:19.176Z,5.75
2022-10-28T07:28:27.682Z,4.93
2022-10-28T07:30:56.072Z,5.35
2022-10-28T07:33:23.930Z,5.15
2022-10-28T07:35:51.768Z,5.50
2022-10-28T07:38:21.198Z,5.15
2022-10-28T07:40:49.034Z,4.73
2022-10-28T07:43:17.086Z,4.55
2022-10-28T07:45:44.914Z,5.93
2022-10-28T07:48:12.799Z,4.70
2022-10-28T07:50:41.303Z,5.05
2022-10-28T07:53:09.310Z,5.25
2022-10-28T07:55:38.617Z,5.35
2022-10-28T07:58:06.426Z,5.40
2022-10-28T08:00:34.346Z,5.53
2022-10-28T08:03:03.694Z,5.15
2022-10-28T08:05:31.505Z,5.33
2022-10-28T08:07:59.358Z,5.05
2022-10-28T08:10:27.990Z,5.15
2022-10-28T08:12:58.907Z,5.03
2022-10-28T08:15:27.391Z,4.93
2022-10-28T08:17:55.860Z,4.25
2022-10-28T08:20:24.278Z,5.45
2022-10-28T08:22:52.519Z,5.22
2022-10-28T08:25:20.802Z,5.13
2022-10-28T08:27:48.623Z,4.70
2022-10-28T08:30:18.547Z,4.55
2022-10-28T08:32:46.338Z,4.50
2022-10-28T08:35:14.329Z,4.90
2022-10-28T08:37:46.117Z,4.78
2022-10-28T08:40:14.714Z,5.20
2022-10-28T08:42:48.486Z,5.22
2022-10-28T08:45:26.461Z,4.15
2022-10-28T08:48:10.689Z,4.80
2022-10-28T08:50:47.674Z,4.47
2022-10-28T08:53:20.524Z,4.32
2022-10-28T08:55:51.828Z,4.32
2022-10-28T08:58:24.869Z,4.45
2022-10-28T09:00:56.004Z,4.50
2022-10-28T09:03:26.877Z,4.40
2022-10-28T09:06:01.408Z,5.15
2022-10-28T09:08:32.915Z,4.20
2022-10-28T09:11:34.986Z,4.28
2022-10-28T09:14:15.144Z,5.22
2022-10-28T09:16:48.580Z,4.38
2022-10-28T09:19:26.812Z,4.18
2022-10-28T09:22:08.237Z,4.03
2022-10-28T09:24:45.530Z,4.43
2022-10-28T09:27:24.213Z,4.45
2022-10-28T09:30:03.711Z,4.38
2022-10-28T09:32:43.788Z,3.90
2022-10-28T09:35:15.036Z,3.97
2022-10-28T09:37:48.691Z,4.63
2022-10-28T09:40:20.793Z,4.10
2022-10-28T09:43:07.521Z,4.78
2022-10-28T09:45:38.781Z,4.00
2022-10-28T09:48:17.987Z,4.90
2022-10-28T09:50:45.920Z,4.20
2022-10-28T09:53:19.767Z,3.72
2022-10-28T09:55:47.703Z,3.88
2022-10-28T09:58:15.528Z,4.15
2022-10-28T10:00:43.420Z,4.70
2022-10-28T10:03:12.636Z,4.47
2022-10-28T10:05:44.493Z,5.72
2022-10-28T10:08:15.891Z,4.13
2022-10-28T10:10:48.931Z,4.88
2022-10-28T10:13:21.218Z,3.97
2022-10-28T10:15:53.774Z,4.28
2022-10-28T10:18:25.625Z,4.10
2022-10-28T10:20:55.886Z,4.72
2022-10-28T10:23:28.366Z,5.00
2022-10-28T10:26:04.475Z,4.28
2022-10-28T10:28:37.964Z,4.07
2022-10-28T10:31:08.702Z,4.22
2022-10-28T10:33:40.449Z,4.70
2022-10-28T10:36:17.066Z,4.30
2022-10-28T10:38:50.132Z,4.32
2022-10-28T10:41:35.660Z,4.45
2022-10-28T10:44:03.563Z,4.00
2022-10-28T10:46:31.376Z,4.25
2022-10-28T10:49:14.886Z,4.35
2022-10-28T10:51:52.478Z,4.63
2022-10-28T10:54:21.649Z,4.15
2022-10-28T10:56:49.649Z,4.20
2022-10-28T10:59:24.221Z,4.05
2022-10-28T11:01:52.697Z,5.22
2022-10-28T11:04:25.345Z,4.43
2022-10-28T11:06:55.757Z,4.20
2022-10-28T11:09:31.286Z,4.13
2022-10-28T11:11:59.198Z,3.75
2022-10-28T11:14:29.387Z,4.65
2022-10-28T11:19:31.690Z,4.95
2022-10-28T11:22:13.669Z,3.83
2022-10-28T11:25:09.389Z,3.55
2022-10-28T11:27:55.289Z,4.70
2022-10-28T11:30:36.242Z,4.45
2022-10-28T11:33:29.429Z,4.70
2022-10-28T11:36:10.031Z,4.78
2022-10-28T11:38:56.545Z,4.47
2022-10-28T11:41:33.512Z,4.10
2022-10-28T11:44:05.339Z,4.57
2022-10-28T11:46:44.506Z,4.47
2022-10-28T11:49:42.797Z,4.60
2022-10-28T11:52:28.899Z,4.25
2022-10-28T11:55:13.584Z,4.10
2022-10-28T11:57:56.519Z,3.88
2022-10-28T12:00:44.686Z,4.35
2022-10-28T12:03:36.077Z,4.03
2022-10-28T12:06:13.530Z,4.68
2022-10-28T12:08:56.837Z,4.03
2022-10-28T12:11:34.408Z,4.38
2022-10-28T12:14:11.059Z,4.70
2022-10-28T12:16:44.307Z,4.18
2022-10-28T12:19:16.146Z,4.70
2022-10-28T12:21:48.817Z,4.22
2022-10-28T12:24:22.457Z,4.68
2022-10-28T12:26:54.502Z,5.43
2022-10-28T12:29:26.564Z,4.13
2022-10-28T12:31:59.938Z,4.35
2022-10-28T12:34:34.281Z,4.90
2022-10-28T12:37:07.104Z,4.15
2022-10-28T12:39:42.376Z,4.85
2022-10-28T12:42:15.238Z,4.47
2022-10-28T12:44:45.331Z,4.25
2022-10-28T12:47:20.265Z,4.72
2022-10-28T12:50:01.308Z,5.13
2022-10-28T12:52:37.857Z,3.90
2022-10-28T12:55:18.715Z,4.75
2022-10-28T12:57:52.932Z,4.47
2022-10-28T13:00:24.857Z,4.90
2022-10-28T13:03:00.711Z,5.40
2022-10-28T13:05:35.578Z,4.22
2022-10-28T13:08:40.001Z,4.18
2022-10-28T13:11:46.264Z,4.57
2022-10-28T13:14:32.180Z,5.22
2022-10-28T13:17:20.495Z,5.28
2022-10-28T13:20:11.131Z,4.35
2022-10-28T13:23:02.298Z,4.55
2022-10-28T13:25:55.120Z,4.68
2022-10-28T13:28:33.653Z,5.10
2022-10-28T13:31:05.656Z,4.95
2022-10-28T13:33:36.737Z,4.25
2022-10-28T13:36:19.419Z,4.55
2022-10-28T13:38:53.935Z,5.00
2022-10-28T13:41:34.543Z,4.20
2022-10-28T13:44:30.678Z,4.70
2022-10-28T13:47:26.163Z,4.90
2022-10-28T13:50:21.517Z,5.15
2022-10-28T13:53:43.170Z,4.68
2022-10-28T13:56:39.683Z,4.82
2022-10-28T13:59:20.547Z,5.60
2022-10-28T14:02:01.932Z,4.35
2022-10-28T14:04:44.923Z,5.15
2022-10-28T14:07:22.577Z,4.95
2022-10-28T14:09:53.918Z,5.03
2022-10-28T14:12:33.529Z,5.68
2022-10-28T14:15:17.020Z,5.90
2022-10-28T14:17:49.970Z,4.60
2022-10-28T14:20:28.029Z,5.03
2022-10-28T14:22:56.301Z,5.07
2022-10-28T14:26:01.819Z,4.65
2022-10-28T14:28:52.847Z,4.38
2022-10-28T14:31:33.956Z,4.43
2022-10-28T14:34:44.584Z,4.35
2022-10-28T14:37:53.518Z,4.35
2022-10-28T14:40:32.608Z,4.53
2022-10-28T14:43:17.644Z,4.70
2022-10-28T14:46:02.301Z,4.65
2022-10-28T14:48:51.598Z,4.80
2022-10-28T14:51:22.898Z,4.73
2022-10-28T14:53:56.506Z,5.05
2022-10-28T14:56:26.874Z,4.57
2022-10-28T14:58:58.583Z,4.43
2022-10-28T15:01:28.605Z,4.82
2022-10-28T15:04:00.121Z,4.35
2022-10-28T15:06:41.591Z,5.25
2022-10-28T15:09:21.832Z,4.95
2022-10-28T15:14:29.241Z,4.38
2022-10-28T15:16:57.557Z,4.35
2022-10-28T15:19:27.283Z,4.80
2022-10-28T15:22:07.475Z,4.72
2022-10-28T15:27:04.649Z,4.32
2022-10-28T15:29:32.695Z,4.35
2022-10-28T15:32:11.378Z,5.22
2022-10-28T15:34:39.177Z,5.30
2022-10-28T15:37:07.983Z,5.60
2022-10-28T15:39:37.538Z,5.13
2022-10-28T15:42:27.938Z,5.60
2022-10-28T15:44:57.043Z,5.25
2022-10-28T15:47:32.799Z,6.03
2022-10-28T15:50:03.704Z,5.32
2022-10-28T15:52:50.286Z,7.03
2022-10-28T15:58:34.118Z,6.15
2022-10-28T16:03:42.887Z,5.53
2022-10-28T16:06:24.683Z,5.60
2022-10-28T16:09:05.539Z,6.07
2022-10-28T16:11:39.268Z,6.05
2022-10-28T16:14:28.850Z,5.47
2022-10-28T16:16:59.887Z,5.78
2022-10-28T16:19:30.750Z,4.75
2022-10-28T16:21:58.635Z,4.10
2022-10-28T16:24:26.457Z,5.95
2022-10-28T16:27:09.252Z,5.00
2022-10-28T16:29:37.102Z,5.72
2022-10-28T16:32:05.168Z,5.15
2022-10-28T16:34:33.136Z,5.43
2022-10-28T16:37:00.910Z,4.97
2022-10-28T16:39:28.759Z,4.70
2022-10-28T16:41:58.906Z,4.85
2022-10-28T16:46:54.997Z,4.95
2022-10-28T16:49:22.801Z,5.53
2022-10-28T16:51:50.659Z,6.07
2022-10-28T16:54:18.423Z,5.03
2022-10-28T16:56:46.206Z,5.65
2022-10-28T16:59:15.604Z,6.15
2022-10-28T17:01:43.495Z,6.55
2022-10-28T17:04:11.597Z,6.30
2022-10-28T17:06:39.475Z,7.07
2022-10-28T17:09:07.244Z,7.38
2022-10-28T17:11:35.110Z,6.50
2022-10-28T17:14:02.962Z,7.60
2022-10-28T17:16:32.167Z,7.60
2022-10-28T17:19:00.032Z,7.75
2022-10-28T17:21:27.857Z,8.02
2022-10-28T17:23:55.750Z,8.70
2022-10-28T17:26:23.541Z,7.80
2022-10-28T17:28:54.549Z,9.20
2022-10-28T17:31:25.067Z,8.05
2022-10-28T17:33:57.795Z,8.30
2022-10-28T17:36:25.710Z,7.78
2022-10-28T17:38:53.543Z,8.07
2022-10-28T17:41:21.449Z,8.20
2022-10-28T17:43:49.313Z,7.63
2022-10-28T17:46:17.167Z,7.18
2022-10-28T17:48:44.969Z,7.18
2022-10-28T17:51:14.553Z,6.57
2022-10-28T17:53:42.403Z,6.68
2022-10-28T17:56:10.842Z,6.40
2022-10-28T17:58:38.821Z,5.97
2022-10-28T18:01:08.873Z,6.18
2022-10-28T18:03:38.947Z,8.30
2022-10-28T18:06:10.265Z,5.40
2022-10-28T18:08:41.463Z,6.40
2022-10-28T18:11:11.283Z,7.25
2022-10-28T18:13:40.737Z,6.30
2022-10-28T18:16:11.037Z,6.70
2022-10-28T18:18:42.265Z,6.65
2022-10-28T18:21:10.905Z,6.85
2022-10-28T18:23:40.950Z,7.13
2022-10-28T18:26:12.220Z,6.63
2022-10-28T18:28:41.068Z,5.63
2022-10-28T18:31:12.240Z,6.25
2022-10-28T18:33:40.837Z,5.57
2022-10-28T18:36:12.242Z,6.20
2022-10-28T18:38:41.903Z,6.45
2022-10-28T18:41:11.751Z,7.57
2022-10-28T18:43:39.769Z,6.72
2022-10-28T18:46:08.157Z,7.28
2022-10-28T18:48:36.261Z,8.00
2022-10-28T18:51:07.416Z,9.20
2022-10-28T18:53:36.784Z,9.93
2022-10-28T18:56:07.233Z,9.45
2022-10-28T18:58:35.808Z,9.27
2022-10-28T19:01:08.786Z,8.27
2022-10-28T19:03:36.933Z,7.85
2022-10-28T19:06:06.590Z,7.00
2022-10-28T19:08:34.782Z,7.10
2022-10-28T19:11:03.692Z,6.47
2022-10-28T19:13:36.494Z,6.55
2022-10-28T19:16:05.084Z,6.55
2022-10-28T19:18:35.567Z,7.15
2022-10-28T19:21:04.283Z,6.18
2022-10-28T19:23:32.621Z,7.10
2022-10-28T19:26:01.269Z,7.00
2022-10-28T19:28:29.288Z,6.43
2022-10-28T19:31:04.641Z,6.40
2022-10-28T19:33:33.008Z,7.22
2022-10-28T19:36:06.810Z,6.93
2022-10-28T19:38:36.457Z,5.93
2022-10-28T19:41:06.009Z,6.65
2022-10-28T19:43:34.298Z,7.38
2022-10-28T19:46:10.310Z,9.15
2022-10-28T19:48:38.971Z,9.63
2022-10-28T19:51:07.715Z,9.50
2022-10-28T19:53:36.294Z,8.07
2022-10-28T19:56:05.046Z,11.38
2022-10-28T19:58:33.370Z,9.73
2022-10-28T20:01:03.464Z,10.00
2022-10-28T20:06:06.116Z,9.70
2022-10-28T20:08:38.070Z,9.57
2022-10-28T20:11:07.457Z,8.85
2022-10-28T20:13:36.126Z,9.07
2022-10-28T20:16:06.638Z,8.43
2022-10-28T20:18:36.025Z,8.05
2022-10-28T20:21:05.511Z,8.73
2022-10-28T20:23:35.588Z,6.43
2022-10-28T20:26:04.704Z,9.15
2022-10-28T20:28:32.925Z,9.45
2022-10-28T20:31:02.202Z,9.20
2022-10-28T20:33:31.221Z,9.18
2022-10-28T20:36:00.449Z,10.13
2022-10-28T20:38:28.888Z,10.00
2022-10-28T20:40:58.348Z,10.80
2022-10-28T20:43:27.551Z,10.80
2022-10-28T20:45:58.616Z,12.05
2022-10-28T20:48:27.629Z,11.02
2022-10-28T20:50:57.309Z,11.18
2022-10-28T20:53:28.512Z,10.55
2022-10-28T20:55:58.201Z,10.73
2022-10-28T20:58:29.273Z,9.57
2022-10-28T21:01:03.441Z,9.07
2022-10-28T21:03:31.308Z,9.38
2022-10-28T21:05:59.121Z,9.07
2022-10-28T21:08:28.389Z,8.82
2022-10-28T21:10:56.640Z,7.53
2022-10-28T21:13:24.678Z,7.78
2022-10-28T21:15:56.525Z,7.72
2022-10-28T21:18:25.982Z,7.55
2022-10-28T21:20:57.305Z,8.20
2022-10-28T21:23:25.961Z,8.15
2022-10-28T21:25:55.614Z,7.50
2022-10-28T21:28:24.164Z,6.78
2022-10-28T21:30:52.095Z,7.32
2022-10-28T21:33:19.938Z,7.65
2022-10-28T21:35:56.561Z,7.25
2022-10-28T21:38:24.904Z,7.78
2022-10-28T21:41:01.961Z,7.60
2022-10-28T21:43:30.716Z,7.43
2022-10-28T21:45:59.015Z,7.65
2022-10-28T21:48:27.990Z,8.63
2022-10-28T21:50:57.403Z,8.45
2022-10-28T21:53:25.901Z,7.40
2022-10-28T21:55:55.657Z,7.00
2022-10-28T21:58:24.974Z,7.25
2022-10-28T22:00:52.822Z,7.43
2022-10-28T22:03:20.740Z,7.85
2022-10-28T22:05:52.038Z,6.60
2022-10-28T22:08:19.823Z,6.97
2022-10-28T22:10:47.689Z,7.20
2022-10-28T22:13:15.601Z,8.45
2022-10-28T22:15:44.828Z,6.93
2022-10-28T22:18:12.665Z,7.63
2022-10-28T22:20:40.656Z,9.93
2022-10-28T22:23:08.654Z,8.10
2022-10-28T22:25:36.476Z,8.43
2022-10-28T22:28:04.547Z,7.25
2022-10-28T22:30:32.334Z,7.97
2022-10-28T22:33:01.676Z,8.05
2022-10-28T22:35:29.640Z,7.93
2022-10-28T22:37:57.623Z,7.43
2022-10-28T22:40:25.635Z,7.50
2022-10-28T22:42:53.453Z,7.75
2022-10-28T22:45:21.234Z,8.02
2022-10-28T22:47:50.352Z,7.65
2022-10-28T22:50:19.586Z,7.45
2022-10-28T22:52:47.458Z,7.40
2022-10-28T22:55:15.610Z,7.07
2022-10-28T22:57:43.445Z,9.13
2022-10-28T23:00:12.525Z,7.63
2022-10-28T23:02:40.551Z,7.93
2022-10-28T23:05:09.443Z,8.38
2022-10-28T23:07:38.602Z,8.02
2022-10-28T23:10:07.303Z,7.85
2022-10-28T23:12:35.093Z,8.23
2022-10-28T23:15:02.900Z,8.35
2022-10-28T23:17:30.685Z,7.53
2022-10-28T23:19:58.556Z,8.10
2022-10-28T23:22:26.334Z,7.63
2022-10-28T23:24:55.735Z,8.90
2022-10-28T23:27:23.803Z,8.35
2022-10-28T23:29:51.581Z,7.72
2022-10-28T23:32:19.352Z,7.30
2022-10-28T23:34:47.462Z,7.63
2022-10-28T23:37:15.295Z,8.45
2022-10-28T23:39:43.249Z,8.45
2022-10-28T23:42:12.380Z,9.18
2022-10-28T23:44:40.581Z,7.63
2022-10-28T23:47:08.481Z,7.88
2022-10-28T23:49:36.337Z,10.35
2022-10-28T23:52:04.462Z,8.82
2022-10-28T23:54:32.263Z,8.35
2022-10-28T23:57:00.187Z,9.07
2022-10-28T23:59:29.420Z,7.78
